sensor_id;sensor_type;location;lat;lon;timestamp;temperature;humidity
21823;DHT22;11074;48.596;9.238;2023-04-15T00:00:38;6.80;99.90
21823;DHT22;11074;48.596;9.238;2023-04-15T00:03:04;6.90;99.90
21823;DHT22;11074;48.596;9.238;2023-04-15T00:05:33;6.90;99.90
21823;DHT22;11074;48.596;9.238;2023-04-15T00:07:59;6.70;99.90
21823;DHT22;11074;48.596;9.238;2023-04-15T00:10:26;6.70;99.90
21823;DHT22;11074;48.596;9.238;2023-04-15T00:12:52;6.60;99.90
21823;DHT22;11074;48.596;9.238;2023-04-15T00:15:18;6.70;99.90
21823;DHT22;11074;48.596;9.238;2023-04-15T00:17:44;6.70;99.90
21823;DHT22;11074;48.596;9.238;2023-04-15T00:20:10;6.70;99.90
21823;DHT22;11074;48.596;9.238;2023-04-15T00:22:36;6.70;99.90
21823;DHT22;11074;48.596;9.238;2023-04-15T00:25:02;6.70;99.90
21823;DHT22;11074;48.596;9.238;2023-04-15T00:27:28;6.70;99.90
21823;DHT22;11074;48.596;9.238;2023-04-15T00:29:54;6.70;99.90
21823;DHT22;11074;48.596;9.238;2023-04-15T00:32:20;6.60;99.90
21823;DHT22;11074;48.596;9.238;2023-04-15T00:34:46;6.60;99.90
21823;DHT22;11074;48.596;9.238;2023-04-15T00:37:12;6.60;99.90
21823;DHT22;11074;48.596;9.238;2023-04-15T00:39:38;6.50;99.90
21823;DHT22;11074;48.596;9.238;2023-04-15T00:42:04;6.40;99.90
21823;DHT22;11074;48.596;9.238;2023-04-15T00:44:30;6.20;99.90
21823;DHT22;11074;48.596;9.238;2023-04-15T00:46:56;6.20;99.90
21823;DHT22;11074;48.596;9.238;2023-04-15T00:49:23;6.30;99.90
21823;DHT22;11074;48.596;9.238;2023-04-15T00:51:49;6.30;99.90
21823;DHT22;11074;48.596;9.238;2023-04-15T00:54:15;6.20;99.90
21823;DHT22;11074;48.596;9.238;2023-04-15T00:56:41;6.20;99.90
21823;DHT22;11074;48.596;9.238;2023-04-15T00:59:07;6.10;99.90
21823;DHT22;11074;48.596;9.238;2023-04-15T01:01:36;6.10;99.90
21823;DHT22;11074;48.596;9.238;2023-04-15T01:04:03;6.10;99.90
21823;DHT22;11074;48.596;9.238;2023-04-15T01:06:30;6.10;99.90
21823;DHT22;11074;48.596;9.238;2023-04-15T01:08:57;6.20;99.90
21823;DHT22;11074;48.596;9.238;2023-04-15T01:11:23;6.30;99.90
21823;DHT22;11074;48.596;9.238;2023-04-15T01:13:51;6.30;99.90
21823;DHT22;11074;48.596;9.238;2023-04-15T01:16:19;6.20;99.90
21823;DHT22;11074;48.596;9.238;2023-04-15T01:18:45;6.00;99.90
21823;DHT22;11074;48.596;9.238;2023-04-15T01:21:11;6.00;99.90
21823;DHT22;11074;48.596;9.238;2023-04-15T01:23:38;6.00;99.90
21823;DHT22;11074;48.596;9.238;2023-04-15T01:26:05;6.00;99.90
21823;DHT22;11074;48.596;9.238;2023-04-15T01:28:35;6.00;99.90
21823;DHT22;11074;48.596;9.238;2023-04-15T01:31:12;6.00;99.90
21823;DHT22;11074;48.596;9.238;2023-04-15T01:33:40;6.00;99.90
21823;DHT22;11074;48.596;9.238;2023-04-15T01:36:08;5.90;99.90
21823;DHT22;11074;48.596;9.238;2023-04-15T01:38:36;5.80;99.90
21823;DHT22;11074;48.596;9.238;2023-04-15T01:41:02;5.80;99.90
21823;DHT22;11074;48.596;9.238;2023-04-15T01:43:29;5.80;99.90
21823;DHT22;11074;48.596;9.238;2023-04-15T01:45:54;5.80;99.90
21823;DHT22;11074;48.596;9.238;2023-04-15T01:48:21;5.90;99.90
21823;DHT22;11074;48.596;9.238;2023-04-15T01:50:47;5.80;99.90
21823;DHT22;11074;48.596;9.238;2023-04-15T01:53:13;5.80;99.90
21823;DHT22;11074;48.596;9.238;2023-04-15T01:55:40;5.80;99.90
21823;DHT22;11074;48.596;9.238;2023-04-15T01:58:06;5.70;99.90
21823;DHT22;11074;48.596;9.238;2023-04-15T02:00:32;5.70;99.90
21823;DHT22;11074;48.596;9.238;2023-04-15T02:02:58;5.70;99.90
21823;DHT22;11074;48.596;9.238;2023-04-15T02:05:24;5.60;99.90
21823;DHT22;11074;48.596;9.238;2023-04-15T02:07:50;5.60;99.90
21823;DHT22;11074;48.596;9.238;2023-04-15T02:10:16;5.50;99.90
21823;DHT22;11074;48.596;9.238;2023-04-15T02:12:42;5.40;99.90
21823;DHT22;11074;48.596;9.238;2023-04-15T02:15:08;5.30;99.90
21823;DHT22;11074;48.596;9.238;2023-04-15T02:17:35;5.40;99.90
21823;DHT22;11074;48.596;9.238;2023-04-15T02:20:02;5.40;99.90
21823;DHT22;11074;48.596;9.238;2023-04-15T02:22:30;5.40;99.90
21823;DHT22;11074;48.596;9.238;2023-04-15T02:24:56;5.50;99.90
21823;DHT22;11074;48.596;9.238;2023-04-15T02:27:22;5.50;99.90
21823;DHT22;11074;48.596;9.238;2023-04-15T02:29:47;5.40;99.90
21823;DHT22;11074;48.596;9.238;2023-04-15T02:32:15;5.40;99.90
21823;DHT22;11074;48.596;9.238;2023-04-15T02:34:41;5.50;99.90
21823;DHT22;11074;48.596;9.238;2023-04-15T02:37:11;5.60;99.90
21823;DHT22;11074;48.596;9.238;2023-04-15T02:39:39;5.50;99.90
21823;DHT22;11074;48.596;9.238;2023-04-15T02:42:04;5.50;99.90
21823;DHT22;11074;48.596;9.238;2023-04-15T02:44:31;5.40;99.90
21823;DHT22;11074;48.596;9.238;2023-04-15T02:46:59;5.50;99.90
21823;DHT22;11074;48.596;9.238;2023-04-15T02:49:24;5.40;99.90
21823;DHT22;11074;48.596;9.238;2023-04-15T02:51:50;5.50;99.90
21823;DHT22;11074;48.596;9.238;2023-04-15T02:54:18;5.50;99.90
21823;DHT22;11074;48.596;9.238;2023-04-15T02:56:45;5.50;99.90
21823;DHT22;11074;48.596;9.238;2023-04-15T02:59:13;5.50;99.90
21823;DHT22;11074;48.596;9.238;2023-04-15T03:01:39;5.50;99.90
21823;DHT22;11074;48.596;9.238;2023-04-15T03:04:05;5.50;99.90
21823;DHT22;11074;48.596;9.238;2023-04-15T03:06:33;5.50;99.90
21823;DHT22;11074;48.596;9.238;2023-04-15T03:08:59;5.50;99.90
21823;DHT22;11074;48.596;9.238;2023-04-15T03:11:27;5.30;99.90
21823;DHT22;11074;48.596;9.238;2023-04-15T03:13:57;5.30;99.90
21823;DHT22;11074;48.596;9.238;2023-04-15T03:16:23;5.30;99.90
21823;DHT22;11074;48.596;9.238;2023-04-15T03:18:50;5.20;99.90
21823;DHT22;11074;48.596;9.238;2023-04-15T03:21:15;5.30;99.90
21823;DHT22;11074;48.596;9.238;2023-04-15T03:23:41;5.10;99.90
21823;DHT22;11074;48.596;9.238;2023-04-15T03:26:07;5.10;99.90
21823;DHT22;11074;48.596;9.238;2023-04-15T03:28:32;5.00;99.90
21823;DHT22;11074;48.596;9.238;2023-04-15T03:30:59;5.00;99.90
21823;DHT22;11074;48.596;9.238;2023-04-15T03:33:25;5.10;99.90
21823;DHT22;11074;48.596;9.238;2023-04-15T03:35:51;5.10;99.90
21823;DHT22;11074;48.596;9.238;2023-04-15T03:38:17;5.10;99.90
21823;DHT22;11074;48.596;9.238;2023-04-15T03:40:44;5.20;99.90
21823;DHT22;11074;48.596;9.238;2023-04-15T03:43:11;5.20;99.90
21823;DHT22;11074;48.596;9.238;2023-04-15T03:45:36;5.20;99.90
21823;DHT22;11074;48.596;9.238;2023-04-15T03:48:02;5.10;99.90
21823;DHT22;11074;48.596;9.238;2023-04-15T03:50:28;5.10;99.90
21823;DHT22;11074;48.596;9.238;2023-04-15T03:52:55;5.10;99.90
21823;DHT22;11074;48.596;9.238;2023-04-15T03:55:21;5.00;99.90
21823;DHT22;11074;48.596;9.238;2023-04-15T03:57:46;5.00;99.90
21823;DHT22;11074;48.596;9.238;2023-04-15T04:00:12;5.00;99.90
21823;DHT22;11074;48.596;9.238;2023-04-15T04:02:41;5.00;99.90
21823;DHT22;11074;48.596;9.238;2023-04-15T04:05:07;5.10;99.90
21823;DHT22;11074;48.596;9.238;2023-04-15T04:07:33;5.10;99.90
21823;DHT22;11074;48.596;9.238;2023-04-15T04:09:59;5.00;99.90
21823;DHT22;11074;48.596;9.238;2023-04-15T04:12:25;4.80;99.90
21823;DHT22;11074;48.596;9.238;2023-04-15T04:14:50;4.80;99.90
21823;DHT22;11074;48.596;9.238;2023-04-15T04:17:16;4.70;99.90
21823;DHT22;11074;48.596;9.238;2023-04-15T04:19:42;4.80;99.90
21823;DHT22;11074;48.596;9.238;2023-04-15T04:22:07;4.80;99.90
21823;DHT22;11074;48.596;9.238;2023-04-15T04:24:33;4.90;99.90
21823;DHT22;11074;48.596;9.238;2023-04-15T04:26:59;4.80;99.90
21823;DHT22;11074;48.596;9.238;2023-04-15T04:29:27;4.80;99.90
21823;DHT22;11074;48.596;9.238;2023-04-15T04:31:53;4.90;99.90
21823;DHT22;11074;48.596;9.238;2023-04-15T04:34:19;4.90;99.90
21823;DHT22;11074;48.596;9.238;2023-04-15T04:36:45;4.90;99.90
21823;DHT22;11074;48.596;9.238;2023-04-15T04:39:11;4.80;99.90
21823;DHT22;11074;48.596;9.238;2023-04-15T04:41:37;4.80;99.90
21823;DHT22;11074;48.596;9.238;2023-04-15T04:44:02;4.80;99.90
21823;DHT22;11074;48.596;9.238;2023-04-15T04:46:28;4.80;99.90
21823;DHT22;11074;48.596;9.238;2023-04-15T04:48:54;4.80;99.90
21823;DHT22;11074;48.596;9.238;2023-04-15T04:51:20;4.80;99.90
21823;DHT22;11074;48.596;9.238;2023-04-15T04:53:49;4.90;99.90
21823;DHT22;11074;48.596;9.238;2023-04-15T04:56:15;4.90;99.90
21823;DHT22;11074;48.596;9.238;2023-04-15T04:58:41;4.90;99.90
21823;DHT22;11074;48.596;9.238;2023-04-15T05:01:07;4.80;99.90
21823;DHT22;11074;48.596;9.238;2023-04-15T05:03:33;4.70;99.90
21823;DHT22;11074;48.596;9.238;2023-04-15T05:05:59;4.60;99.90
21823;DHT22;11074;48.596;9.238;2023-04-15T05:08:25;4.40;99.90
21823;DHT22;11074;48.596;9.238;2023-04-15T05:10:51;4.40;99.90
21823;DHT22;11074;48.596;9.238;2023-04-15T05:13:16;4.50;99.90
21823;DHT22;11074;48.596;9.238;2023-04-15T05:15:42;4.50;99.90
21823;DHT22;11074;48.596;9.238;2023-04-15T05:18:08;4.60;99.90
21823;DHT22;11074;48.596;9.238;2023-04-15T05:20:33;4.60;99.90
21823;DHT22;11074;48.596;9.238;2023-04-15T05:22:59;4.70;99.90
21823;DHT22;11074;48.596;9.238;2023-04-15T05:25:25;4.70;99.90
21823;DHT22;11074;48.596;9.238;2023-04-15T05:27:51;4.80;99.90
21823;DHT22;11074;48.596;9.238;2023-04-15T05:30:17;4.90;99.90
21823;DHT22;11074;48.596;9.238;2023-04-15T05:32:43;4.80;99.90
21823;DHT22;11074;48.596;9.238;2023-04-15T05:35:08;4.90;99.90
21823;DHT22;11074;48.596;9.238;2023-04-15T05:37:35;5.00;99.90
21823;DHT22;11074;48.596;9.238;2023-04-15T05:40:01;5.00;99.90
21823;DHT22;11074;48.596;9.238;2023-04-15T05:42:26;5.10;99.90
21823;DHT22;11074;48.596;9.238;2023-04-15T05:44:52;5.10;99.90
21823;DHT22;11074;48.596;9.238;2023-04-15T05:47:18;5.10;99.90
21823;DHT22;11074;48.596;9.238;2023-04-15T05:49:43;5.20;99.90
21823;DHT22;11074;48.596;9.238;2023-04-15T05:52:09;5.20;99.90
21823;DHT22;11074;48.596;9.238;2023-04-15T05:54:35;5.30;99.90
21823;DHT22;11074;48.596;9.238;2023-04-15T05:57:01;5.30;99.90
21823;DHT22;11074;48.596;9.238;2023-04-15T05:59:27;5.50;99.90
21823;DHT22;11074;48.596;9.238;2023-04-15T06:01:53;5.60;99.90
21823;DHT22;11074;48.596;9.238;2023-04-15T06:04:18;5.70;99.90
21823;DHT22;11074;48.596;9.238;2023-04-15T06:06:44;5.80;99.90
21823;DHT22;11074;48.596;9.238;2023-04-15T06:09:10;5.90;99.90
21823;DHT22;11074;48.596;9.238;2023-04-15T06:11:36;5.90;99.90
21823;DHT22;11074;48.596;9.238;2023-04-15T06:14:02;6.00;99.90
21823;DHT22;11074;48.596;9.238;2023-04-15T06:16:27;6.00;99.90
21823;DHT22;11074;48.596;9.238;2023-04-15T06:18:53;6.00;99.90
21823;DHT22;11074;48.596;9.238;2023-04-15T06:21:19;6.00;99.90
21823;DHT22;11074;48.596;9.238;2023-04-15T06:23:44;5.90;99.90
21823;DHT22;11074;48.596;9.238;2023-04-15T06:26:10;5.90;99.90
21823;DHT22;11074;48.596;9.238;2023-04-15T06:28:36;5.90;99.90
21823;DHT22;11074;48.596;9.238;2023-04-15T06:31:02;5.90;99.90
21823;DHT22;11074;48.596;9.238;2023-04-15T06:33:28;5.90;99.90
21823;DHT22;11074;48.596;9.238;2023-04-15T06:35:53;6.00;99.90
21823;DHT22;11074;48.596;9.238;2023-04-15T06:38:19;6.10;99.90
21823;DHT22;11074;48.596;9.238;2023-04-15T06:40:45;6.30;99.90
21823;DHT22;11074;48.596;9.238;2023-04-15T06:43:10;6.30;99.90
21823;DHT22;11074;48.596;9.238;2023-04-15T06:45:37;6.30;99.90
21823;DHT22;11074;48.596;9.238;2023-04-15T06:48:02;6.30;99.90
21823;DHT22;11074;48.596;9.238;2023-04-15T06:50:28;6.40;99.90
21823;DHT22;11074;48.596;9.238;2023-04-15T06:52:55;6.60;99.90
21823;DHT22;11074;48.596;9.238;2023-04-15T06:55:21;6.70;99.90
21823;DHT22;11074;48.596;9.238;2023-04-15T06:57:47;6.80;99.90
21823;DHT22;11074;48.596;9.238;2023-04-15T07:00:13;6.90;99.90
21823;DHT22;11074;48.596;9.238;2023-04-15T07:02:39;6.90;99.90
21823;DHT22;11074;48.596;9.238;2023-04-15T07:05:05;7.00;99.90
21823;DHT22;11074;48.596;9.238;2023-04-15T07:07:31;6.90;99.90
21823;DHT22;11074;48.596;9.238;2023-04-15T07:09:57;7.00;99.90
21823;DHT22;11074;48.596;9.238;2023-04-15T07:12:23;7.00;99.90
21823;DHT22;11074;48.596;9.238;2023-04-15T07:14:48;7.00;99.90
21823;DHT22;11074;48.596;9.238;2023-04-15T07:17:14;7.00;99.90
21823;DHT22;11074;48.596;9.238;2023-04-15T07:19:40;7.00;99.90
21823;DHT22;11074;48.596;9.238;2023-04-15T07:22:06;7.00;99.90
21823;DHT22;11074;48.596;9.238;2023-04-15T07:24:32;6.90;99.90
21823;DHT22;11074;48.596;9.238;2023-04-15T07:26:58;6.90;99.90
21823;DHT22;11074;48.596;9.238;2023-04-15T07:29:24;7.00;99.90
21823;DHT22;11074;48.596;9.238;2023-04-15T07:31:51;7.10;99.90
21823;DHT22;11074;48.596;9.238;2023-04-15T07:34:18;7.10;99.90
21823;DHT22;11074;48.596;9.238;2023-04-15T07:36:45;7.20;99.90
21823;DHT22;11074;48.596;9.238;2023-04-15T07:39:14;7.30;99.90
21823;DHT22;11074;48.596;9.238;2023-04-15T07:41:49;7.40;99.90
21823;DHT22;11074;48.596;9.238;2023-04-15T07:44:15;7.60;99.90
21823;DHT22;11074;48.596;9.238;2023-04-15T07:46:41;7.70;99.90
21823;DHT22;11074;48.596;9.238;2023-04-15T07:49:06;7.80;99.90
21823;DHT22;11074;48.596;9.238;2023-04-15T07:51:32;7.90;99.90
21823;DHT22;11074;48.596;9.238;2023-04-15T07:53:58;8.00;99.90
21823;DHT22;11074;48.596;9.238;2023-04-15T07:56:23;8.10;99.90
21823;DHT22;11074;48.596;9.238;2023-04-15T07:58:50;8.10;99.90
21823;DHT22;11074;48.596;9.238;2023-04-15T08:01:16;8.00;99.90
21823;DHT22;11074;48.596;9.238;2023-04-15T08:03:42;7.90;99.90
21823;DHT22;11074;48.596;9.238;2023-04-15T08:06:07;7.80;99.90
21823;DHT22;11074;48.596;9.238;2023-04-15T08:08:33;7.80;99.90
21823;DHT22;11074;48.596;9.238;2023-04-15T08:10:59;7.90;99.90
21823;DHT22;11074;48.596;9.238;2023-04-15T08:13:25;8.00;99.90
21823;DHT22;11074;48.596;9.238;2023-04-15T08:16:13;8.10;99.90
21823;DHT22;11074;48.596;9.238;2023-04-15T08:18:44;8.30;99.90
21823;DHT22;11074;48.596;9.238;2023-04-15T08:21:10;8.50;99.90
21823;DHT22;11074;48.596;9.238;2023-04-15T08:23:36;8.70;99.90
21823;DHT22;11074;48.596;9.238;2023-04-15T08:26:02;8.80;99.90
21823;DHT22;11074;48.596;9.238;2023-04-15T08:28:28;9.00;99.90
21823;DHT22;11074;48.596;9.238;2023-04-15T08:30:54;9.10;99.90
21823;DHT22;11074;48.596;9.238;2023-04-15T08:33:20;9.30;99.90
21823;DHT22;11074;48.596;9.238;2023-04-15T08:35:47;9.40;99.90
21823;DHT22;11074;48.596;9.238;2023-04-15T08:38:13;9.60;99.90
21823;DHT22;11074;48.596;9.238;2023-04-15T08:40:43;9.70;99.90
21823;DHT22;11074;48.596;9.238;2023-04-15T08:43:14;9.70;99.90
21823;DHT22;11074;48.596;9.238;2023-04-15T08:45:45;9.90;99.90
21823;DHT22;11074;48.596;9.238;2023-04-15T08:48:14;10.00;99.90
21823;DHT22;11074;48.596;9.238;2023-04-15T08:50:41;10.20;99.90
21823;DHT22;11074;48.596;9.238;2023-04-15T08:53:08;10.20;99.90
21823;DHT22;11074;48.596;9.238;2023-04-15T08:55:37;10.30;99.90
21823;DHT22;11074;48.596;9.238;2023-04-15T08:58:07;10.40;99.90
21823;DHT22;11074;48.596;9.238;2023-04-15T09:00:35;10.50;99.90
21823;DHT22;11074;48.596;9.238;2023-04-15T09:03:03;10.60;99.90
21823;DHT22;11074;48.596;9.238;2023-04-15T09:05:31;10.70;99.90
21823;DHT22;11074;48.596;9.238;2023-04-15T09:07:58;10.70;99.90
21823;DHT22;11074;48.596;9.238;2023-04-15T09:10:24;10.80;99.90
21823;DHT22;11074;48.596;9.238;2023-04-15T09:12:50;10.90;99.90
21823;DHT22;11074;48.596;9.238;2023-04-15T09:15:16;11.00;99.90
21823;DHT22;11074;48.596;9.238;2023-04-15T09:17:42;11.10;99.90
21823;DHT22;11074;48.596;9.238;2023-04-15T09:20:11;11.20;99.90
21823;DHT22;11074;48.596;9.238;2023-04-15T09:22:39;11.30;99.90
21823;DHT22;11074;48.596;9.238;2023-04-15T09:25:27;11.40;99.90
21823;DHT22;11074;48.596;9.238;2023-04-15T09:27:58;11.40;99.90
21823;DHT22;11074;48.596;9.238;2023-04-15T09:30:27;11.50;99.90
21823;DHT22;11074;48.596;9.238;2023-04-15T09:32:59;11.80;99.90
21823;DHT22;11074;48.596;9.238;2023-04-15T09:35:27;11.90;99.90
21823;DHT22;11074;48.596;9.238;2023-04-15T09:38:01;12.10;99.90
21823;DHT22;11074;48.596;9.238;2023-04-15T09:40:33;12.20;99.90
21823;DHT22;11074;48.596;9.238;2023-04-15T09:43:01;12.30;99.90
21823;DHT22;11074;48.596;9.238;2023-04-15T09:45:28;12.30;99.90
21823;DHT22;11074;48.596;9.238;2023-04-15T09:47:57;12.50;99.90
21823;DHT22;11074;48.596;9.238;2023-04-15T09:50:27;12.60;99.90
21823;DHT22;11074;48.596;9.238;2023-04-15T09:52:55;12.80;99.90
21823;DHT22;11074;48.596;9.238;2023-04-15T09:55:21;13.10;99.90
21823;DHT22;11074;48.596;9.238;2023-04-15T09:57:47;13.30;99.90
21823;DHT22;11074;48.596;9.238;2023-04-15T10:00:13;13.40;99.90
21823;DHT22;11074;48.596;9.238;2023-04-15T10:02:40;13.50;99.90
21823;DHT22;11074;48.596;9.238;2023-04-15T10:05:14;13.60;99.90
21823;DHT22;11074;48.596;9.238;2023-04-15T10:07:42;13.60;99.90
21823;DHT22;11074;48.596;9.238;2023-04-15T10:10:09;13.70;99.90
21823;DHT22;11074;48.596;9.238;2023-04-15T10:12:36;13.70;99.90
21823;DHT22;11074;48.596;9.238;2023-04-15T10:15:05;13.70;99.90
21823;DHT22;11074;48.596;9.238;2023-04-15T10:17:42;13.70;99.90
21823;DHT22;11074;48.596;9.238;2023-04-15T10:20:09;13.60;99.90
21823;DHT22;11074;48.596;9.238;2023-04-15T10:22:37;13.50;99.90
21823;DHT22;11074;48.596;9.238;2023-04-15T10:25:05;13.50;99.90
21823;DHT22;11074;48.596;9.238;2023-04-15T10:27:31;13.40;99.90
21823;DHT22;11074;48.596;9.238;2023-04-15T10:29:59;13.40;99.90
21823;DHT22;11074;48.596;9.238;2023-04-15T10:32:28;13.30;99.90
21823;DHT22;11074;48.596;9.238;2023-04-15T10:34:55;13.30;99.90
21823;DHT22;11074;48.596;9.238;2023-04-15T10:37:36;13.10;99.90
21823;DHT22;11074;48.596;9.238;2023-04-15T10:40:26;13.20;99.90
21823;DHT22;11074;48.596;9.238;2023-04-15T10:42:56;13.20;99.90
21823;DHT22;11074;48.596;9.238;2023-04-15T10:45:25;13.20;99.90
21823;DHT22;11074;48.596;9.238;2023-04-15T10:48:03;13.30;99.90
21823;DHT22;11074;48.596;9.238;2023-04-15T10:50:32;13.30;99.90
21823;DHT22;11074;48.596;9.238;2023-04-15T10:52:58;13.40;99.90
21823;DHT22;11074;48.596;9.238;2023-04-15T10:55:31;13.40;99.90
21823;DHT22;11074;48.596;9.238;2023-04-15T10:57:59;13.40;99.90
21823;DHT22;11074;48.596;9.238;2023-04-15T11:00:31;13.40;99.90
21823;DHT22;11074;48.596;9.238;2023-04-15T11:03:07;13.20;99.90
21823;DHT22;11074;48.596;9.238;2023-04-15T11:08:06;13.20;99.90
21823;DHT22;11074;48.596;9.238;2023-04-15T11:13:24;13.50;99.90
21823;DHT22;11074;48.596;9.238;2023-04-15T11:15:54;13.80;99.90
21823;DHT22;11074;48.596;9.238;2023-04-15T11:18:29;13.80;99.90
21823;DHT22;11074;48.596;9.238;2023-04-15T11:21:04;14.00;99.90
21823;DHT22;11074;48.596;9.238;2023-04-15T11:23:39;14.20;99.90
21823;DHT22;11074;48.596;9.238;2023-04-15T11:26:09;14.30;99.90
21823;DHT22;11074;48.596;9.238;2023-04-15T11:28:37;14.60;99.90
21823;DHT22;11074;48.596;9.238;2023-04-15T11:31:10;15.00;99.90
21823;DHT22;11074;48.596;9.238;2023-04-15T11:34:01;15.30;99.90
21823;DHT22;11074;48.596;9.238;2023-04-15T11:36:28;15.60;99.90
21823;DHT22;11074;48.596;9.238;2023-04-15T11:38:57;15.70;99.90
21823;DHT22;11074;48.596;9.238;2023-04-15T11:41:24;16.00;99.90
21823;DHT22;11074;48.596;9.238;2023-04-15T11:43:51;16.10;99.90
21823;DHT22;11074;48.596;9.238;2023-04-15T11:46:17;16.00;99.90
21823;DHT22;11074;48.596;9.238;2023-04-15T11:48:44;15.70;99.90
21823;DHT22;11074;48.596;9.238;2023-04-15T11:51:12;15.40;99.90
21823;DHT22;11074;48.596;9.238;2023-04-15T11:56:10;14.70;99.90
21823;DHT22;11074;48.596;9.238;2023-04-15T11:58:41;14.70;99.90
21823;DHT22;11074;48.596;9.238;2023-04-15T12:01:08;14.70;99.90
21823;DHT22;11074;48.596;9.238;2023-04-15T12:03:42;14.80;99.90
21823;DHT22;11074;48.596;9.238;2023-04-15T12:06:19;14.90;99.90
21823;DHT22;11074;48.596;9.238;2023-04-15T12:11:37;15.50;99.90
21823;DHT22;11074;48.596;9.238;2023-04-15T12:14:11;15.80;99.90
21823;DHT22;11074;48.596;9.238;2023-04-15T12:16:51;16.10;99.90
21823;DHT22;11074;48.596;9.238;2023-04-15T12:21:49;16.10;99.90
21823;DHT22;11074;48.596;9.238;2023-04-15T12:24:24;16.00;99.90
21823;DHT22;11074;48.596;9.238;2023-04-15T12:26:54;15.60;99.90
21823;DHT22;11074;48.596;9.238;2023-04-15T12:29:27;15.30;99.90
21823;DHT22;11074;48.596;9.238;2023-04-15T12:34:45;15.10;99.90
21823;DHT22;11074;48.596;9.238;2023-04-15T12:37:15;15.00;99.90
21823;DHT22;11074;48.596;9.238;2023-04-15T12:39:42;14.90;99.90
21823;DHT22;11074;48.596;9.238;2023-04-15T12:42:10;15.10;99.90
21823;DHT22;11074;48.596;9.238;2023-04-15T12:44:37;15.50;99.90
21823;DHT22;11074;48.596;9.238;2023-04-15T12:47:04;15.70;99.90
21823;DHT22;11074;48.596;9.238;2023-04-15T12:49:30;15.70;99.90
21823;DHT22;11074;48.596;9.238;2023-04-15T12:51:58;15.60;99.90
21823;DHT22;11074;48.596;9.238;2023-04-15T12:54:31;15.50;99.90
21823;DHT22;11074;48.596;9.238;2023-04-15T12:56:58;15.40;99.90
21823;DHT22;11074;48.596;9.238;2023-04-15T12:59:25;15.40;99.90
21823;DHT22;11074;48.596;9.238;2023-04-15T13:01:52;15.50;99.90
21823;DHT22;11074;48.596;9.238;2023-04-15T13:04:19;15.40;99.90
21823;DHT22;11074;48.596;9.238;2023-04-15T13:06:45;15.30;99.90
21823;DHT22;11074;48.596;9.238;2023-04-15T13:09:11;14.80;99.90
21823;DHT22;11074;48.596;9.238;2023-04-15T13:11:36;14.30;99.90
21823;DHT22;11074;48.596;9.238;2023-04-15T13:14:04;14.10;99.90
21823;DHT22;11074;48.596;9.238;2023-04-15T13:16:32;13.80;99.90
21823;DHT22;11074;48.596;9.238;2023-04-15T13:18:58;13.50;99.90
21823;DHT22;11074;48.596;9.238;2023-04-15T13:21:25;13.40;99.90
21823;DHT22;11074;48.596;9.238;2023-04-15T13:23:51;13.20;99.90
21823;DHT22;11074;48.596;9.238;2023-04-15T13:26:17;12.90;99.90
21823;DHT22;11074;48.596;9.238;2023-04-15T13:28:44;12.90;99.90
21823;DHT22;11074;48.596;9.238;2023-04-15T13:31:10;13.00;99.90
21823;DHT22;11074;48.596;9.238;2023-04-15T13:33:36;13.10;99.90
21823;DHT22;11074;48.596;9.238;2023-04-15T13:36:02;13.20;99.90
21823;DHT22;11074;48.596;9.238;2023-04-15T13:38:28;13.20;99.90
21823;DHT22;11074;48.596;9.238;2023-04-15T13:40:53;13.20;99.90
21823;DHT22;11074;48.596;9.238;2023-04-15T13:43:19;13.20;99.90
21823;DHT22;11074;48.596;9.238;2023-04-15T13:45:46;13.20;99.90
21823;DHT22;11074;48.596;9.238;2023-04-15T13:48:12;13.20;99.90
21823;DHT22;11074;48.596;9.238;2023-04-15T13:50:38;13.20;99.90
21823;DHT22;11074;48.596;9.238;2023-04-15T13:53:05;13.40;99.90
21823;DHT22;11074;48.596;9.238;2023-04-15T13:55:31;13.40;99.90
21823;DHT22;11074;48.596;9.238;2023-04-15T13:57:59;13.30;99.90
21823;DHT22;11074;48.596;9.238;2023-04-15T14:00:24;13.40;99.90
21823;DHT22;11074;48.596;9.238;2023-04-15T14:02:50;13.40;99.90
21823;DHT22;11074;48.596;9.238;2023-04-15T14:05:16;13.40;99.90
21823;DHT22;11074;48.596;9.238;2023-04-15T14:07:42;13.30;99.90
21823;DHT22;11074;48.596;9.238;2023-04-15T14:10:07;13.20;99.90
21823;DHT22;11074;48.596;9.238;2023-04-15T14:12:33;13.10;99.90
21823;DHT22;11074;48.596;9.238;2023-04-15T14:14:59;13.00;99.90
21823;DHT22;11074;48.596;9.238;2023-04-15T14:17:24;13.00;99.90
21823;DHT22;11074;48.596;9.238;2023-04-15T14:19:50;13.00;99.90
21823;DHT22;11074;48.596;9.238;2023-04-15T14:22:16;13.10;99.90
21823;DHT22;11074;48.596;9.238;2023-04-15T14:24:43;13.10;99.90
21823;DHT22;11074;48.596;9.238;2023-04-15T14:27:09;13.20;99.90
21823;DHT22;11074;48.596;9.238;2023-04-15T14:29:36;13.30;99.90
21823;DHT22;11074;48.596;9.238;2023-04-15T14:32:02;13.30;99.90
21823;DHT22;11074;48.596;9.238;2023-04-15T14:34:28;13.20;99.90
21823;DHT22;11074;48.596;9.238;2023-04-15T14:36:54;13.10;99.90
21823;DHT22;11074;48.596;9.238;2023-04-15T14:39:20;13.00;99.90
21823;DHT22;11074;48.596;9.238;2023-04-15T14:41:46;13.00;99.90
21823;DHT22;11074;48.596;9.238;2023-04-15T14:44:12;12.80;99.90
21823;DHT22;11074;48.596;9.238;2023-04-15T14:46:38;12.80;99.90
21823;DHT22;11074;48.596;9.238;2023-04-15T14:49:05;12.70;99.90
21823;DHT22;11074;48.596;9.238;2023-04-15T14:51:31;12.60;99.90
21823;DHT22;11074;48.596;9.238;2023-04-15T14:53:57;12.60;99.90
21823;DHT22;11074;48.596;9.238;2023-04-15T14:56:23;12.60;99.90
21823;DHT22;11074;48.596;9.238;2023-04-15T14:58:49;12.70;99.90
21823;DHT22;11074;48.596;9.238;2023-04-15T15:01:17;12.70;99.90
21823;DHT22;11074;48.596;9.238;2023-04-15T15:03:43;12.60;99.90
21823;DHT22;11074;48.596;9.238;2023-04-15T15:06:09;12.60;99.90
21823;DHT22;11074;48.596;9.238;2023-04-15T15:08:34;12.70;99.90
21823;DHT22;11074;48.596;9.238;2023-04-15T15:11:01;12.70;99.90
21823;DHT22;11074;48.596;9.238;2023-04-15T15:13:27;12.70;99.90
21823;DHT22;11074;48.596;9.238;2023-04-15T15:15:53;12.60;99.90
21823;DHT22;11074;48.596;9.238;2023-04-15T15:18:19;12.60;99.90
21823;DHT22;11074;48.596;9.238;2023-04-15T15:20:45;12.70;99.90
21823;DHT22;11074;48.596;9.238;2023-04-15T15:23:11;12.70;99.90
21823;DHT22;11074;48.596;9.238;2023-04-15T15:25:36;12.60;99.90
21823;DHT22;11074;48.596;9.238;2023-04-15T15:28:02;12.60;99.90
21823;DHT22;11074;48.596;9.238;2023-04-15T15:30:28;12.50;99.90
21823;DHT22;11074;48.596;9.238;2023-04-15T15:32:54;12.40;99.90
21823;DHT22;11074;48.596;9.238;2023-04-15T15:35:20;12.40;99.90
21823;DHT22;11074;48.596;9.238;2023-04-15T15:37:47;12.30;99.90
21823;DHT22;11074;48.596;9.238;2023-04-15T15:40:13;12.30;99.90
21823;DHT22;11074;48.596;9.238;2023-04-15T15:42:38;12.20;99.90
21823;DHT22;11074;48.596;9.238;2023-04-15T15:45:04;12.20;99.90
21823;DHT22;11074;48.596;9.238;2023-04-15T15:47:31;12.00;99.90
21823;DHT22;11074;48.596;9.238;2023-04-15T15:49:56;12.00;99.90
21823;DHT22;11074;48.596;9.238;2023-04-15T15:52:22;11.90;99.90
21823;DHT22;11074;48.596;9.238;2023-04-15T15:54:48;11.90;99.90